createdAt,value
2022-08-25T00:00:22.711Z,98313.72
2022-08-25T00:02:56.003Z,98310.44
2022-08-25T00:05:29.512Z,98312.63
2022-08-25T00:08:04.370Z,98311.81
2022-08-25T00:10:36.748Z,98319.06
2022-08-25T00:13:05.238Z,98324.84
2022-08-25T00:15:32.883Z,98314.59
2022-08-25T00:18:01.240Z,98319.28
2022-08-25T00:20:32.908Z,98322.34
2022-08-25T00:23:02.650Z,98315.19
2022-08-25T00:25:29.977Z,98327.63
2022-08-25T00:27:58.948Z,98323.50
2022-08-25T00:30:26.320Z,98329.03
2022-08-25T00:32:57.139Z,98329.88
2022-08-25T00:35:27.839Z,98341.75
2022-08-25T00:37:55.844Z,98336.22
2022-08-25T00:40:27.258Z,98347.84
2022-08-25T00:42:56.153Z,98339.84
2022-08-25T00:45:24.649Z,98330.72
2022-08-25T00:47:52.144Z,98331.28
2022-08-25T00:50:21.468Z,98328.25
2022-08-25T00:52:56.087Z,98324.38
2022-08-25T00:55:39.931Z,98329.09
2022-08-25T00:58:26.595Z,98321.34
2022-08-25T01:00:57.849Z,98337.94
2022-08-25T01:03:32.903Z,98330.47
2022-08-25T01:06:05.193Z,98341.22
2022-08-25T01:08:33.656Z,98339.03
2022-08-25T01:11:09.061Z,98334.88
2022-08-25T01:13:52.727Z,98330.19
2022-08-25T01:16:20.797Z,98321.91
2022-08-25T01:18:57.903Z,98319.41
2022-08-25T01:21:30.755Z,98321.34
2022-08-25T01:24:01.220Z,98323.56
2022-08-25T01:26:35.192Z,98326.59
2022-08-25T01:29:21.595Z,98319.97
2022-08-25T01:32:02.781Z,98334.06
2022-08-25T01:34:36.857Z,98334.31
2022-08-25T01:37:05.549Z,98330.47
2022-08-25T01:39:36.638Z,98329.06
2022-08-25T01:42:49.749Z,98336.81
2022-08-25T01:45:17.061Z,98343.19
2022-08-25T01:47:44.380Z,98340.97
2022-08-25T01:50:13.468Z,98341.25
2022-08-25T01:53:33.431Z,98338.47
2022-08-25T01:56:13.948Z,98348.94
2022-08-25T01:58:47.844Z,98350.34
2022-08-25T02:01:25.249Z,98362.47
2022-08-25T02:03:56.817Z,98356.97
2022-08-25T02:06:33.389Z,98357.69
2022-08-25T02:09:10.956Z,98362.72
2022-08-25T02:11:45.171Z,98358.78
2022-08-25T02:14:16.979Z,98353.91
2022-08-25T02:16:50.882Z,98354.38
2022-08-25T02:19:21.010Z,98354.88
2022-08-25T02:21:48.659Z,98349.97
2022-08-25T02:24:16.338Z,98347.22
2022-08-25T02:26:45.233Z,98346.44
2022-08-25T02:29:12.766Z,98331.72
2022-08-25T02:31:40.969Z,98342.22
2022-08-25T02:34:11.647Z,98330.59
2022-08-25T02:36:40.130Z,98329.19
2022-08-25T02:39:10.431Z,98328.38
2022-08-25T02:41:41.057Z,98340.19
2022-08-25T02:44:09.928Z,98332.19
2022-08-25T02:46:38.475Z,98342.72
2022-08-25T02:49:08.427Z,98339.38
2022-08-25T02:51:36.121Z,98337.47
2022-08-25T02:54:06.000Z,98353.19
2022-08-25T02:56:34.155Z,98343.19
2022-08-25T02:59:02.866Z,98353.06
2022-08-25T03:01:32.722Z,98362.72
2022-08-25T03:04:01.978Z,98361.84
2022-08-25T03:06:30.991Z,98362.44
2022-08-25T03:08:58.372Z,98365.75
2022-08-25T03:11:26.671Z,98355.84
2022-08-25T03:13:54.590Z,98354.22
2022-08-25T03:16:22.834Z,98356.44
2022-08-25T03:18:56.281Z,98356.31
2022-08-25T03:21:25.074Z,98343.09
2022-08-25T03:23:52.393Z,98354.41
2022-08-25T03:29:06.558Z,98347.78
2022-08-25T03:31:36.629Z,98346.00
2022-08-25T03:34:04.076Z,98346.84
2022-08-25T03:36:31.803Z,98345.09
2022-08-25T03:39:00.393Z,98342.00
2022-08-25T03:41:33.522Z,98323.91
2022-08-25T03:44:04.136Z,98335.41
2022-08-25T03:46:47.117Z,98341.41
2022-08-25T03:49:23.493Z,98349.44
2022-08-25T03:51:54.724Z,98345.25
2022-08-25T03:54:25.923Z,98345.84
2022-08-25T03:56:54.213Z,98354.66
2022-08-25T03:59:21.699Z,98357.31
2022-08-25T04:01:54.444Z,98344.91
2022-08-25T04:04:22.846Z,98342.25
2022-08-25T04:06:50.295Z,98342.94
2022-08-25T04:09:17.608Z,98352.03
2022-08-25T04:11:44.943Z,98340.69
2022-08-25T04:14:15.824Z,98344.28
2022-08-25T04:16:45.305Z,98344.19
2022-08-25T04:19:13.003Z,98337.88
2022-08-25T04:21:42.242Z,98336.78
2022-08-25T04:24:13.000Z,98349.28
2022-08-25T04:26:50.376Z,98334.06
2022-08-25T04:29:23.935Z,98341.50
2022-08-25T04:31:54.041Z,98340.13
2022-08-25T04:34:30.689Z,98337.91
2022-08-25T04:37:06.261Z,98343.47
2022-08-25T04:39:34.187Z,98349.88
2022-08-25T04:42:02.368Z,98336.50
2022-08-25T04:44:31.834Z,98343.22
2022-08-25T04:47:00.681Z,98340.25
2022-08-25T04:49:28.739Z,98341.09
2022-08-25T04:51:57.410Z,98330.75
2022-08-25T04:54:25.213Z,98324.69
2022-08-25T04:56:54.544Z,98329.88
2022-08-25T04:59:30.231Z,98326.75
2022-08-25T05:02:02.877Z,98312.22
2022-08-25T05:04:32.985Z,98317.16
2022-08-25T05:07:01.249Z,98309.94
2022-08-25T05:09:29.198Z,98321.63
2022-08-25T05:12:02.944Z,98302.97
2022-08-25T05:14:31.641Z,98315.66
2022-08-25T05:16:59.319Z,98320.72
2022-08-25T05:19:27.573Z,98324.44
2022-08-25T05:21:55.069Z,98323.94
2022-08-25T05:24:25.765Z,98325.22
2022-08-25T05:26:53.078Z,98337.56
2022-08-25T05:29:20.512Z,98336.25
2022-08-25T05:31:50.612Z,98332.03
2022-08-25T05:34:19.467Z,98327.28
2022-08-25T05:36:48.923Z,98328.72
2022-08-25T05:39:16.385Z,98327.38
2022-08-25T05:41:44.075Z,98317.09
2022-08-25T05:44:12.712Z,98318.19
2022-08-25T05:46:40.093Z,98312.84
2022-08-25T05:49:07.571Z,98310.59
2022-08-25T05:51:34.875Z,98306.44
2022-08-25T05:54:03.479Z,98307.63
2022-08-25T05:56:31.357Z,98306.75
2022-08-25T05:58:58.794Z,98304.94
2022-08-25T06:01:49.050Z,98314.91
2022-08-25T06:04:20.890Z,98316.53
2022-08-25T06:06:48.770Z,98310.63
2022-08-25T06:09:18.728Z,98308.41
2022-08-25T06:11:49.693Z,98296.56
2022-08-25T06:14:20.725Z,98306.63
2022-08-25T06:16:51.445Z,98302.53
2022-08-25T06:19:19.171Z,98305.47
2022-08-25T06:21:46.484Z,98293.97
2022-08-25T06:24:15.674Z,98300.94
2022-08-25T06:26:44.246Z,98278.25
2022-08-25T06:29:14.131Z,98294.03
2022-08-25T06:31:43.542Z,98294.34
2022-08-25T06:34:13.592Z,98305.41
2022-08-25T06:36:41.191Z,98309.84
2022-08-25T06:39:10.653Z,98297.19
2022-08-25T06:41:39.051Z,98298.81
2022-08-25T06:44:07.024Z,98299.94
2022-08-25T06:46:36.463Z,98295.03
2022-08-25T06:49:07.112Z,98299.22
2022-08-25T06:51:38.316Z,98298.13
2022-08-25T06:54:10.013Z,98295.13
2022-08-25T06:56:41.021Z,98294.56
2022-08-25T06:59:10.598Z,98292.13
2022-08-25T07:01:39.512Z,98291.03
2022-08-25T07:04:12.903Z,98288.88
2022-08-25T07:06:43.772Z,98286.38
2022-08-25T07:09:13.349Z,98285.81
2022-08-25T07:11:43.474Z,98287.53
2022-08-25T07:14:16.280Z,98290.00
2022-08-25T07:16:48.763Z,98298.31
2022-08-25T07:19:20.877Z,98289.22
2022-08-25T07:21:54.121Z,98292.25
2022-08-25T07:24:23.085Z,98291.44
2022-08-25T07:26:51.443Z,98300.03
2022-08-25T07:29:32.227Z,98295.06
2022-08-25T07:32:03.653Z,98291.22
2022-08-25T07:34:52.544Z,98283.47
2022-08-25T07:40:29.928Z,98297.59
2022-08-25T07:43:03.201Z,98294.81
2022-08-25T07:45:37.838Z,98290.13
2022-08-25T07:48:19.957Z,98293.19
2022-08-25T07:50:49.452Z,98293.16
2022-08-25T07:53:18.133Z,98296.47
2022-08-25T07:55:45.587Z,98299.53
2022-08-25T07:58:15.337Z,98296.47
2022-08-25T08:00:42.810Z,98298.97
2022-08-25T08:03:19.775Z,98293.97
2022-08-25T08:05:58.303Z,98299.81
2022-08-25T08:08:25.613Z,98302.00
2022-08-25T08:11:04.334Z,98304.72
2022-08-25T08:13:36.766Z,98304.47
2022-08-25T08:16:15.542Z,98300.28
2022-08-25T08:18:45.283Z,98295.50
2022-08-25T08:21:26.646Z,98301.31
2022-08-25T08:23:58.954Z,98297.44
2022-08-25T08:26:48.119Z,98306.81
2022-08-25T08:29:16.482Z,98295.19
2022-08-25T08:31:48.594Z,98301.28
2022-08-25T08:34:17.295Z,98301.22
2022-08-25T08:36:45.358Z,98293.16
2022-08-25T08:39:12.916Z,98292.63
2022-08-25T08:42:39.742Z,98288.72
2022-08-25T08:45:40.391Z,98288.94
2022-08-25T08:49:07.009Z,98293.94
2022-08-25T08:51:54.372Z,98285.28
2022-08-25T08:54:26.519Z,98281.66
2022-08-25T08:57:25.563Z,98283.25
2022-08-25T09:00:04.836Z,98286.03
2022-08-25T09:03:09.900Z,98292.84
2022-08-25T09:05:53.191Z,98286.47
2022-08-25T09:08:20.751Z,98288.03
2022-08-25T09:11:26.988Z,98290.28
2022-08-25T09:14:59.496Z,98286.88
2022-08-25T09:18:12.110Z,98294.09
2022-08-25T09:21:13.017Z,98287.91
2022-08-25T09:24:06.008Z,98278.69
2022-08-25T09:27:43.754Z,98284.38
2022-08-25T09:30:49.845Z,98276.06
2022-08-25T09:33:41.821Z,98279.06
2022-08-25T09:36:20.872Z,98280.50
2022-08-25T09:38:58.604Z,98280.28
2022-08-25T09:42:12.058Z,98269.00
2022-08-25T09:44:55.343Z,98264.91
2022-08-25T09:47:45.914Z,98264.53
2022-08-25T09:50:41.791Z,98270.41
2022-08-25T09:53:51.346Z,98260.22
2022-08-25T09:57:44.654Z,98264.38
2022-08-25T10:01:25.146Z,98252.66
2022-08-25T10:04:20.296Z,98248.59
2022-08-25T10:07:27.660Z,98244.50
2022-08-25T10:10:24.715Z,98243.44
2022-08-25T10:12:52.376Z,98250.69
2022-08-25T10:15:35.981Z,98245.59
2022-08-25T10:18:28.398Z,98243.16
2022-08-25T10:21:19.004Z,98237.91
2022-08-25T10:23:55.945Z,98239.41
2022-08-25T10:27:25.947Z,98236.81
2022-08-25T10:30:43.860Z,98230.66
2022-08-25T10:33:51.446Z,98230.88
2022-08-25T10:37:20.727Z,98222.75
2022-08-25T10:40:28.777Z,98222.66
2022-08-25T10:43:54.821Z,98217.88
2022-08-25T10:46:57.554Z,98212.06
2022-08-25T10:49:45.703Z,98217.66
2022-08-25T10:53:09.884Z,98208.72
2022-08-25T10:55:58.713Z,98206.63
2022-08-25T10:58:45.488Z,98204.78
2022-08-25T11:01:45.162Z,98201.09
2022-08-25T11:04:40.886Z,98201.19
2022-08-25T11:07:35.871Z,98199.53
2022-08-25T11:10:20.243Z,98197.34
2022-08-25T11:13:01.856Z,98192.19
2022-08-25T11:16:15.416Z,98188.66
2022-08-25T11:18:58.961Z,98188.94
2022-08-25T11:22:00.810Z,98183.81
2022-08-25T11:24:46.292Z,98183.34
2022-08-25T11:27:24.515Z,98174.19
2022-08-25T11:30:18.853Z,98180.16
2022-08-25T11:32:53.296Z,98165.91
2022-08-25T11:35:49.021Z,98163.59
2022-08-25T11:39:23.928Z,98160.94
2022-08-25T11:42:35.041Z,98166.06
2022-08-25T11:46:33.851Z,98157.63
2022-08-25T11:49:51.732Z,98163.09
2022-08-25T11:52:34.820Z,98154.94
2022-08-25T11:55:37.341Z,98143.69
2022-08-25T11:58:41.075Z,98146.78
2022-08-25T12:02:00.953Z,98136.44
2022-08-25T12:04:44.800Z,98144.28
2022-08-25T12:07:24.467Z,98132.69
2022-08-25T12:09:51.650Z,98137.78
2022-08-25T12:12:42.517Z,98135.03
2022-08-25T12:15:43.158Z,98138.13
2022-08-25T12:18:22.915Z,98117.66
2022-08-25T12:20:58.878Z,98124.88
2022-08-25T12:24:05.702Z,98114.16
2022-08-25T12:26:59.874Z,98124.28
2022-08-25T12:30:20.768Z,98121.59
2022-08-25T12:33:14.082Z,98117.88
2022-08-25T12:36:00.169Z,98113.53
2022-08-25T12:38:52.242Z,98116.00
2022-08-25T12:41:27.493Z,98113.88
2022-08-25T12:44:45.079Z,98103.84
2022-08-25T12:47:19.992Z,98105.66
2022-08-25T12:49:51.676Z,98109.13
2022-08-25T12:52:28.031Z,98110.50
2022-08-25T12:55:06.065Z,98109.78
2022-08-25T12:57:50.645Z,98104.75
2022-08-25T13:00:37.781Z,98108.63
2022-08-25T13:03:58.419Z,98103.50
2022-08-25T13:07:05.620Z,98099.50
2022-08-25T13:10:46.232Z,98083.44
2022-08-25T13:13:49.075Z,98080.28
2022-08-25T13:16:28.383Z,98084.63
2022-08-25T13:18:59.598Z,98080.44
2022-08-25T13:21:43.918Z,98083.66
2022-08-25T13:24:40.777Z,98073.31
2022-08-25T13:27:26.555Z,98065.84
2022-08-25T13:29:59.885Z,98073.09
2022-08-25T13:32:38.843Z,98071.06
2022-08-25T13:35:32.775Z,98073.78
2022-08-25T13:38:19.483Z,98066.00
2022-08-25T13:40:46.990Z,98061.22
2022-08-25T13:43:15.293Z,98059.41
2022-08-25T13:45:50.356Z,98058.22
2022-08-25T13:48:49.407Z,98057.50
2022-08-25T13:51:31.268Z,98053.84
2022-08-25T13:54:23.803Z,98064.13
2022-08-25T13:56:52.530Z,98060.63
2022-08-25T13:59:30.538Z,98049.66
2022-08-25T14:01:59.776Z,98047.66
2022-08-25T14:04:39.813Z,98045.41
2022-08-25T14:07:22.689Z,98045.63
2022-08-25T14:10:05.056Z,98051.25
2022-08-25T14:12:48.041Z,98040.13
2022-08-25T14:15:23.375Z,98032.34
2022-08-25T14:18:30.083Z,98045.75
2022-08-25T14:21:11.445Z,98039.28
2022-08-25T14:23:40.965Z,98044.63
2022-08-25T14:26:08.323Z,98042.75
2022-08-25T14:28:35.693Z,98038.22
2022-08-25T14:31:28.168Z,98034.78
2022-08-25T14:34:03.725Z,98029.56
2022-08-25T14:36:34.181Z,98027.03
2022-08-25T14:39:08.863Z,98022.31
2022-08-25T14:41:47.463Z,98018.84
2022-08-25T14:44:21.064Z,98020.69
2022-08-25T14:46:56.708Z,98014.69
2022-08-25T14:49:33.711Z,98005.16
2022-08-25T14:52:30.462Z,98017.41
2022-08-25T14:54:57.930Z,98014.72
2022-08-25T14:57:27.085Z,98010.75
2022-08-25T14:59:54.847Z,98006.59
2022-08-25T15:02:29.573Z,98012.41
2022-08-25T15:05:05.886Z,98005.13
2022-08-25T15:07:53.468Z,98003.25
2022-08-25T15:10:24.034Z,97996.50
2022-08-25T15:12:54.731Z,98005.38
2022-08-25T15:15:26.316Z,97999.22
2022-08-25T15:17:55.101Z,97990.59
2022-08-25T15:20:25.537Z,97995.59
2022-08-25T15:22:54.525Z,97992.28
2022-08-25T15:25:22.825Z,97986.75
2022-08-25T15:27:51.838Z,97990.97
2022-08-25T15:30:19.533Z,97987.13
2022-08-25T15:32:48.714Z,97980.44
2022-08-25T15:35:22.352Z,97985.03
2022-08-25T15:38:07.632Z,97990.09
2022-08-25T15:40:40.336Z,97981.88
2022-08-25T15:43:19.928Z,97985.16
2022-08-25T15:45:50.913Z,97978.97
2022-08-25T15:48:18.355Z,97980.63
2022-08-25T15:50:47.297Z,97978.59
2022-08-25T15:53:14.817Z,97987.00
2022-08-25T15:55:42.147Z,97980.63
2022-08-25T15:58:11.524Z,97970.69
2022-08-25T16:00:39.153Z,97975.41
2022-08-25T16:03:07.144Z,97978.91
2022-08-25T16:05:39.462Z,97976.94
2022-08-25T16:08:19.214Z,97971.25
2022-08-25T16:10:47.452Z,97973.44
2022-08-25T16:13:14.925Z,97975.16
2022-08-25T16:15:53.174Z,97970.59
2022-08-25T16:18:23.871Z,97979.94
2022-08-25T16:20:52.703Z,97974.78
2022-08-25T16:23:22.498Z,97973.69
2022-08-25T16:25:50.244Z,97975.09
2022-08-25T16:28:20.618Z,97977.56
2022-08-25T16:30:53.314Z,97968.41
2022-08-25T16:33:21.220Z,97969.78
2022-08-25T16:35:49.207Z,97959.38
2022-08-25T16:38:16.837Z,97970.19
2022-08-25T16:40:46.279Z,97959.97
2022-08-25T16:43:13.612Z,97958.16
2022-08-25T16:45:40.924Z,97966.13
2022-08-25T16:48:08.558Z,97955.25
2022-08-25T16:50:38.498Z,97955.47
2022-08-25T16:53:25.476Z,97954.28
2022-08-25T16:56:05.769Z,97955.38
2022-08-25T16:58:35.983Z,97962.72
2022-08-25T17:01:15.307Z,97961.94
2022-08-25T17:03:43.894Z,97959.00
2022-08-25T17:06:14.110Z,97964.53
2022-08-25T17:08:42.986Z,97963.13
2022-08-25T17:11:32.884Z,97967.47
2022-08-25T17:14:10.945Z,97964.69
2022-08-25T17:16:38.677Z,97964.44
2022-08-25T17:19:13.345Z,97959.38
2022-08-25T17:21:45.921Z,97959.84
2022-08-25T17:24:17.134Z,97960.47
2022-08-25T17:26:49.790Z,97962.13
2022-08-25T17:29:19.047Z,97962.19
2022-08-25T17:31:48.439Z,97957.72
2022-08-25T17:34:20.322Z,97964.78
2022-08-25T17:36:52.138Z,97961.97
2022-08-25T17:39:22.332Z,97954.72
2022-08-25T17:41:50.915Z,97958.56
2022-08-25T17:44:19.528Z,97965.25
2022-08-25T17:46:48.034Z,97956.72
2022-08-25T17:49:17.924Z,97963.09
2022-08-25T17:51:46.511Z,97958.22
2022-08-25T17:54:14.540Z,97952.22
2022-08-25T17:56:41.930Z,97953.03
2022-08-25T17:59:10.277Z,97957.69
2022-08-25T18:01:40.830Z,97959.41
2022-08-25T18:04:17.499Z,97959.59
2022-08-25T18:06:48.609Z,97954.19
2022-08-25T18:09:17.869Z,97962.81
2022-08-25T18:11:46.419Z,97968.41
2022-08-25T18:14:16.652Z,97967.31
2022-08-25T18:16:45.133Z,97963.47
2022-08-25T18:19:14.584Z,97962.13
2022-08-25T18:21:43.406Z,97970.44
2022-08-25T18:24:11.777Z,97969.28
2022-08-25T18:26:43.029Z,97975.25
2022-08-25T18:29:13.053Z,97978.25
2022-08-25T18:31:42.336Z,97978.88
2022-08-25T18:34:11.544Z,97974.16
2022-08-25T18:36:39.517Z,97981.09
2022-08-25T18:39:26.042Z,97986.34
2022-08-25T18:41:53.881Z,97982.06
2022-08-25T18:44:21.555Z,97987.88
2022-08-25T18:46:49.117Z,97987.22
2022-08-25T18:49:17.321Z,97991.81
2022-08-25T18:51:47.080Z,97991.16
2022-08-25T18:54:23.017Z,97990.03
2022-08-25T18:56:54.593Z,98000.22
2022-08-25T18:59:23.789Z,97988.72
2022-08-25T19:01:54.021Z,97993.97
2022-08-25T19:04:28.429Z,97996.44
2022-08-25T19:07:01.865Z,97988.84
2022-08-25T19:09:30.723Z,98001.63
2022-08-25T19:11:59.647Z,97997.38
2022-08-25T19:14:27.684Z,98001.31
2022-08-25T19:16:58.755Z,97997.78
2022-08-25T19:19:27.093Z,98002.91
2022-08-25T19:21:54.407Z,98001.44
2022-08-25T19:24:22.412Z,98006.66
2022-08-25T19:26:54.462Z,98005.53
2022-08-25T19:29:24.668Z,98003.06
2022-08-25T19:31:53.258Z,98009.44
2022-08-25T19:34:33.652Z,98009.91
2022-08-25T19:37:05.041Z,98007.22
2022-08-25T19:39:39.170Z,98015.25
2022-08-25T19:42:35.405Z,98017.72
2022-08-25T19:44:58.912Z,98012.75
2022-08-25T19:47:26.253Z,98013.09
2022-08-25T19:52:40.832Z,98018.97
2022-08-25T19:55:10.560Z,98027.81
2022-08-25T19:57:42.728Z,98029.53
2022-08-25T20:00:30.540Z,98032.47
2022-08-25T20:03:00.650Z,98026.41
2022-08-25T20:05:29.795Z,98032.94
2022-08-25T20:07:58.824Z,98030.22
2022-08-25T20:10:39.048Z,98034.81
2022-08-25T20:13:09.871Z,98036.06
2022-08-25T20:15:39.108Z,98039.44
2022-08-25T20:18:06.949Z,98037.47
2022-08-25T20:20:35.583Z,98046.75
2022-08-25T20:23:22.759Z,98048.16
2022-08-25T20:25:50.530Z,98045.16
2022-08-25T20:28:21.600Z,98045.72
2022-08-25T20:30:49.018Z,98055.09
2022-08-25T20:33:20.098Z,98059.97
2022-08-25T20:35:50.717Z,98056.38
2022-08-25T20:38:20.577Z,98053.78
2022-08-25T20:40:48.028Z,98053.72
2022-08-25T20:43:16.237Z,98053.94
2022-08-25T20:45:43.596Z,98054.25
2022-08-25T20:48:10.930Z,98055.19
2022-08-25T20:50:41.501Z,98053.63
2022-08-25T20:53:10.264Z,98056.34
2022-08-25T20:55:43.664Z,98053.47
2022-08-25T20:58:12.669Z,98056.44
2022-08-25T21:00:43.616Z,98062.41
2022-08-25T21:03:11.332Z,98063.13
2022-08-25T21:05:43.723Z,98055.41
2022-08-25T21:08:11.652Z,98056.53
2022-08-25T21:10:39.924Z,98057.88
2022-08-25T21:13:08.044Z,98059.53
2022-08-25T21:15:35.348Z,98062.72
2022-08-25T21:18:04.012Z,98056.34
2022-08-25T21:20:31.511Z,98070.63
2022-08-25T21:22:58.837Z,98078.91
2022-08-25T21:25:26.350Z,98068.19
2022-08-25T21:27:55.618Z,98069.63
2022-08-25T21:30:27.101Z,98070.66
2022-08-25T21:32:55.887Z,98075.19
2022-08-25T21:35:24.033Z,98079.31
2022-08-25T21:37:53.248Z,98075.66
2022-08-25T21:40:23.149Z,98072.25
2022-08-25T21:42:52.419Z,98074.41
2022-08-25T21:45:20.788Z,98081.56
2022-08-25T21:47:49.129Z,98076.19
2022-08-25T21:50:16.514Z,98084.53
2022-08-25T21:52:43.829Z,98070.84
2022-08-25T21:55:15.756Z,98070.78
2022-08-25T21:57:44.303Z,98075.25
2022-08-25T22:00:14.854Z,98076.84
2022-08-25T22:02:45.908Z,98078.56
2022-08-25T22:05:13.631Z,98079.31
2022-08-25T22:07:44.194Z,98084.41
2022-08-25T22:10:17.665Z,98083.75
2022-08-25T22:12:48.418Z,98088.22
2022-08-25T22:15:16.870Z,98085.38
2022-08-25T22:17:48.187Z,98085.31
2022-08-25T22:20:18.467Z,98082.97
2022-08-25T22:22:45.849Z,98081.25
2022-08-25T22:25:13.603Z,98075.63
2022-08-25T22:27:40.972Z,98086.84
2022-08-25T22:30:10.695Z,98086.78
2022-08-25T22:32:39.777Z,98084.47
2022-08-25T22:35:09.466Z,98082.81
2022-08-25T22:37:37.089Z,98087.59
2022-08-25T22:40:05.903Z,98079.16
2022-08-25T22:42:33.284Z,98084.53
2022-08-25T22:45:01.160Z,98090.63
2022-08-25T22:47:28.489Z,98083.72
2022-08-25T22:49:58.558Z,98089.72
2022-08-25T22:52:33.712Z,98088.59
2022-08-25T22:55:03.115Z,98082.97
2022-08-25T22:57:30.589Z,98084.38
2022-08-25T22:59:59.288Z,98084.53
2022-08-25T23:02:28.288Z,98078.44
2022-08-25T23:04:57.899Z,98078.38
2022-08-25T23:07:29.246Z,98077.78
2022-08-25T23:09:59.790Z,98082.19
2022-08-25T23:12:27.132Z,98076.66
2022-08-25T23:14:58.041Z,98079.25
2022-08-25T23:17:25.612Z,98078.91
2022-08-25T23:19:52.966Z,98070.41
2022-08-25T23:22:20.285Z,98082.53
2022-08-25T23:24:53.478Z,98079.44
2022-08-25T23:27:22.177Z,98076.19
2022-08-25T23:29:50.240Z,98079.53
2022-08-25T23:32:18.768Z,98085.22
2022-08-25T23:34:47.109Z,98078.53
2022-08-25T23:37:18.620Z,98072.75
2022-08-25T23:39:49.467Z,98082.06
2022-08-25T23:42:19.898Z,98081.91
2022-08-25T23:44:49.461Z,98087.22
2022-08-25T23:47:18.209Z,98075.94
2022-08-25T23:49:46.105Z,98073.69
2022-08-25T23:52:17.929Z,98082.78
2022-08-25T23:54:47.009Z,98073.22
2022-08-25T23:57:14.900Z,98078.31
2022-08-25T23:59:43.258Z,98084.44
